Time;durP1;ratioP1;P1;durP2;ratioP2;P2;SDS_P1;SDS_P2;PMS_P1;PMS_P2;Temp;Humidity;BMP_temperature;BMP_pressure;BME280_temperature;BME280_humidity;BME280_pressure;Samples;Min_cycle;Max_cycle;Signal;HPM_P1;HPM_P2
2022/05/06 00:01:51;;;;;;;87.93;47.85;;;;;;;11.33;100.00;102142.66;4993491;28;20094;-78
2022/05/06 00:04:21;;;;;;;85.10;45.67;;;;;;;11.44;100.00;102144.72;4988052;28;20474;-78
2022/05/06 00:06:48;;;;;;;94.07;47.72;;;;;;;11.48;100.00;102145.41;4975163;28;20035;-77
2022/05/06 00:09:13;;;;;;;96.65;50.40;;;;;;;11.27;100.00;102148.53;4994936;28;20084;-77
2022/05/06 00:11:40;;;;;;;91.68;49.00;;;;;;;11.19;100.00;102142.63;4980703;28;20030;-77
2022/05/06 00:14:07;;;;;;;88.53;47.50;;;;;;;11.11;100.00;102143.09;4987805;28;20490;-77
2022/05/06 00:16:32;;;;;;;94.10;46.80;;;;;;;11.26;100.00;102138.53;4967806;28;20034;-76
2022/05/06 00:18:58;;;;;;;90.05;47.22;;;;;;;11.17;100.00;102145.47;4994929;28;20382;-77
2022/05/06 00:21:24;;;;;;;91.13;45.17;;;;;;;11.08;100.00;102150.63;4969830;28;20031;-78
2022/05/06 00:23:50;;;;;;;93.85;46.72;;;;;;;11.16;100.00;102149.16;4987336;28;20039;-77
2022/05/06 00:26:18;;;;;;;88.88;45.28;;;;;;;11.12;100.00;102149.47;4991446;28;20030;-78
2022/05/06 00:28:47;;;;;;;89.47;45.13;;;;;;;11.07;100.00;102147.00;4968552;28;20046;-77
2022/05/06 00:31:13;;;;;;;82.40;44.95;;;;;;;11.01;100.00;102150.97;4993060;28;20042;-77
2022/05/06 00:33:50;;;;;;;88.93;45.70;;;;;;;11.07;100.00;102148.84;4992411;28;20069;-77
2022/05/06 00:36:15;;;;;;;89.85;45.20;;;;;;;11.08;100.00;102145.13;4986086;28;20134;-77
2022/05/06 00:38:44;;;;;;;85.90;43.45;;;;;;;11.08;100.00;102151.50;4977319;28;20076;-77
2022/05/06 00:41:14;;;;;;;94.25;45.22;;;;;;;10.90;100.00;102145.25;4983293;28;20046;-76
2022/05/06 00:43:40;;;;;;;86.15;44.65;;;;;;;10.94;100.00;102151.47;4967058;28;20045;-76
2022/05/06 00:46:15;;;;;;;92.82;44.42;;;;;;;10.88;100.00;102143.59;4993870;28;20374;-77
2022/05/06 00:48:48;;;;;;;95.95;44.60;;;;;;;10.91;100.00;102147.03;4975211;28;20108;-77
2022/05/06 00:51:14;;;;;;;84.70;41.03;;;;;;;10.90;100.00;102144.38;4995034;28;20069;-77
2022/05/06 00:53:43;;;;;;;88.05;44.25;;;;;;;10.91;100.00;102140.69;4992662;28;20634;-77
2022/05/06 00:56:10;;;;;;;86.70;42.10;;;;;;;10.98;100.00;102142.06;4989768;28;20033;-77
2022/05/06 00:58:36;;;;;;;88.53;42.88;;;;;;;10.74;100.00;102147.13;4996053;28;20049;-77
2022/05/06 01:01:04;;;;;;;89.57;41.90;;;;;;;10.62;100.00;102143.28;4992935;28;20038;-78
2022/05/06 01:03:31;;;;;;;88.95;42.70;;;;;;;10.59;100.00;102136.13;4976034;28;20030;-78
2022/05/06 01:06:06;;;;;;;85.03;42.08;;;;;;;10.63;100.00;102154.16;4968191;28;20438;-78
2022/05/06 01:08:34;;;;;;;;;;;;;;;10.53;100.00;102149.31;4993304;28;20053;-76
2022/05/06 01:11:00;;;;;;;87.75;40.83;;;;;;;10.42;100.00;102148.06;4999457;28;20320;-77
2022/05/06 01:13:43;;;;;;;89.43;42.35;;;;;;;10.46;100.00;102152.41;5004920;28;20415;-78
2022/05/06 01:16:10;;;;;;;86.95;41.53;;;;;;;10.41;100.00;102149.06;4993251;28;20039;-78
2022/05/06 01:18:47;;;;;;;79.28;40.00;;;;;;;10.44;100.00;102142.50;4982683;28;20432;-77
2022/05/06 01:21:22;;;;;;;87.90;41.22;;;;;;;10.37;100.00;102147.44;4974956;28;20046;-77
2022/05/06 01:23:51;;;;;;;84.60;40.08;;;;;;;10.35;100.00;102145.78;4992016;28;20034;-77
2022/05/06 01:26:17;;;;;;;83.97;40.40;;;;;;;10.28;100.00;102148.84;4988629;28;20061;-76
2022/05/06 01:28:50;;;;;;;82.53;40.28;;;;;;;10.29;100.00;102152.44;4978743;28;20034;-77
2022/05/06 01:31:20;;;;;;;89.30;43.08;;;;;;;10.21;100.00;102146.53;4979148;28;20034;-78
2022/05/06 01:33:55;;;;;;;80.72;40.45;;;;;;;10.22;100.00;102145.56;4991818;28;20030;-77
2022/05/06 01:36:23;;;;;;;89.47;40.42;;;;;;;10.16;100.00;102152.25;4964458;28;20054;-77
2022/05/06 01:38:55;;;;;;;86.97;40.17;;;;;;;10.09;100.00;102148.97;4983012;28;20077;-77
2022/05/06 01:41:23;;;;;;;82.60;40.20;;;;;;;10.09;100.00;102150.84;4988283;28;20030;-77
2022/05/06 01:44:03;;;;;;;89.60;41.78;;;;;;;10.08;100.00;102152.72;4988592;28;20032;-76
2022/05/06 01:46:35;;;;;;;87.70;39.95;;;;;;;10.05;100.00;102149.22;4983380;28;20037;-76
2022/05/06 01:49:02;;;;;;;91.00;40.88;;;;;;;10.15;100.00;102163.28;4993431;28;20092;-76
2022/05/06 01:51:29;;;;;;;85.63;39.85;;;;;;;10.14;100.00;102167.00;4955856;28;20027;-79
2022/05/06 01:53:57;;;;;;;83.63;41.20;;;;;;;10.12;100.00;102158.88;4987978;28;20049;-77
2022/05/06 01:56:24;;;;;;;84.00;39.25;;;;;;;10.07;100.00;102164.59;4992372;28;20485;-76
2022/05/06 01:59:01;;;;;;;85.25;40.08;;;;;;;9.98;100.00;102159.63;4991839;28;20076;-77
2022/05/06 02:01:27;;;;;;;79.55;38.75;;;;;;;10.02;100.00;102153.03;4973781;28;20129;-77
2022/05/06 02:06:38;;;;;;;84.00;38.60;;;;;;;9.96;100.00;102168.91;4992460;28;20044;-77
2022/05/06 02:09:10;;;;;;;80.15;38.08;;;;;;;9.98;100.00;102165.09;4976970;28;20042;-77
2022/05/06 02:11:46;;;;;;;87.28;39.08;;;;;;;10.05;100.00;102162.91;4990820;28;20031;-77
2022/05/06 02:14:12;;;;;;;84.85;40.42;;;;;;;9.97;100.00;102159.72;4986993;28;20154;-77
2022/05/06 02:16:38;;;;;;;82.07;37.78;;;;;;;10.01;100.00;102161.34;4977335;28;20126;-76
2022/05/06 02:19:06;;;;;;;94.68;39.63;;;;;;;9.93;100.00;102157.16;4965023;28;20040;-76
2022/05/06 02:21:41;;;;;;;79.05;38.28;;;;;;;9.90;100.00;102156.44;4982721;28;20033;-77
2022/05/06 02:24:10;;;;;;;80.25;37.97;;;;;;;9.89;100.00;102155.56;4991065;28;20128;-76
2022/05/06 02:26:39;;;;;;;87.00;36.85;;;;;;;9.82;100.00;102155.97;4968740;28;20553;-77
2022/05/06 02:29:13;;;;;;;91.03;39.38;;;;;;;9.73;100.00;102151.91;4982230;28;20117;-76
2022/05/06 02:34:28;;;;;;;76.70;36.33;;;;;;;9.64;100.00;102158.78;4983085;28;20160;-77
2022/05/06 02:36:54;;;;;;;82.03;38.03;;;;;;;9.69;100.00;102153.03;4984276;28;20049;-77
2022/05/06 02:39:21;;;;;;;84.03;37.72;;;;;;;9.71;100.00;102152.00;4973131;28;20038;-78
2022/05/06 02:41:47;;;;;;;83.22;37.95;;;;;;;9.75;100.00;102153.56;4991302;28;20034;-77
2022/05/06 02:44:14;;;;;;;78.22;35.67;;;;;;;9.70;100.00;102157.53;4978979;28;20039;-78
2022/05/06 02:46:42;;;;;;;78.38;35.45;;;;;;;9.62;100.00;102157.06;4957201;28;20454;-78
2022/05/06 02:49:08;;;;;;;80.40;35.30;;;;;;;9.64;100.00;102166.06;4992638;28;20042;-77
2022/05/06 02:51:35;;;;;;;79.75;35.20;;;;;;;9.61;100.00;102164.41;4987586;28;20034;-77
2022/05/06 02:54:03;;;;;;;83.90;37.17;;;;;;;9.58;100.00;102156.38;4991777;28;20081;-77
2022/05/06 02:56:38;;;;;;;77.15;36.25;;;;;;;9.56;100.00;102155.56;4944857;28;20054;-77
2022/05/06 02:59:08;;;;;;;81.60;35.90;;;;;;;9.49;100.00;102152.25;4993621;28;20356;-78
2022/05/06 03:01:35;;;;;;;84.22;37.17;;;;;;;9.45;100.00;102145.19;4989886;28;20085;-76
2022/05/06 03:04:11;;;;;;;75.57;36.25;;;;;;;9.56;100.00;102150.97;4972531;28;20153;-78
2022/05/06 03:06:39;;;;;;;76.40;36.80;;;;;;;9.52;100.00;102153.97;4987177;28;21055;-77
2022/05/06 03:09:06;;;;;;;88.07;37.13;;;;;;;9.37;100.00;102148.34;4990621;28;20069;-77
2022/05/06 03:11:34;;;;;;;81.85;37.13;;;;;;;9.56;100.00;102161.03;4952416;28;20031;-77
2022/05/06 03:14:06;;;;;;;81.32;37.10;;;;;;;9.53;100.00;102159.34;5005744;28;20078;-76
2022/05/06 03:16:34;;;;;;;82.72;36.08;;;;;;;9.47;100.00;102159.66;4973406;28;20125;-76
2022/05/06 03:19:04;;;;;;;86.40;36.97;;;;;;;9.45;100.00;102155.25;4992163;28;20035;-77
2022/05/06 03:21:31;;;;;;;83.60;37.72;;;;;;;9.41;100.00;102167.31;4971488;28;20046;-77
2022/05/06 03:24:07;;;;;;;78.70;36.67;;;;;;;9.44;100.00;102162.56;4969005;28;20072;-80
2022/05/06 03:26:40;;;;;;;82.43;36.72;;;;;;;9.36;100.00;102156.63;4996115;28;20031;-78
2022/05/06 03:29:16;;;;;;;84.38;35.67;;;;;;;9.36;100.00;102157.53;4994179;28;20758;-77
2022/05/06 03:31:42;;;;;;;82.45;35.70;;;;;;;9.32;100.00;102149.56;4990554;28;20048;-77
2022/05/06 03:34:08;;;;;;;80.88;37.17;;;;;;;9.42;100.00;102149.97;4994465;28;20035;-77
2022/05/06 03:36:34;;;;;;;90.25;38.38;;;;;;;9.42;100.00;102149.97;4963362;28;20053;-78
2022/05/06 03:39:03;;;;;;;85.95;38.05;;;;;;;9.48;100.00;102155.09;5011471;28;20035;-77
2022/05/06 03:41:31;;;;;;;88.22;37.20;;;;;;;9.49;100.00;102157.72;4987464;28;20027;-79
2022/05/06 03:43:58;;;;;;;103.40;39.30;;;;;;;9.51;100.00;102160.38;4976068;28;20027;-76
2022/05/06 03:46:26;;;;;;;99.82;38.45;;;;;;;9.52;100.00;102164.91;4990316;28;20484;-76
2022/05/06 03:49:01;;;;;;;100.32;39.97;;;;;;;9.53;100.00;102163.94;4986455;28;20035;-78
2022/05/06 03:51:31;;;;;;;108.93;38.03;;;;;;;9.61;100.00;102155.28;4956890;28;20084;-77
2022/05/06 03:54:02;;;;;;;99.57;38.08;;;;;;;9.46;100.00;102166.13;4996719;28;20041;-76
2022/05/06 03:56:28;;;;;;;116.65;38.92;;;;;;;9.55;100.00;102168.34;4962422;28;20034;-77
2022/05/06 03:58:53;;;;;;;87.53;38.53;;;;;;;9.53;100.00;102162.06;4969971;28;20529;-78
2022/05/06 04:01:21;;;;;;;107.47;38.17;;;;;;;9.51;100.00;102166.75;4967067;28;20053;-77
2022/05/06 04:03:47;;;;;;;84.10;38.88;;;;;;;9.52;100.00;102176.69;4964925;28;20072;-78
2022/05/06 04:06:15;;;;;;;112.07;40.03;;;;;;;9.54;100.00;102174.78;4997358;28;20497;-77
2022/05/06 04:08:42;;;;;;;113.40;40.40;;;;;;;9.41;100.00;102178.25;5015002;28;20156;-78
2022/05/06 04:11:13;;;;;;;135.32;43.15;;;;;;;9.38;100.00;102174.72;4974872;28;20085;-78
2022/05/06 04:13:39;;;;;;;136.48;44.60;;;;;;;9.36;100.00;102176.66;4979108;28;20038;-77
2022/05/06 04:16:07;;;;;;;123.72;42.13;;;;;;;9.42;100.00;102185.50;5009351;28;20046;-79
2022/05/06 04:18:40;;;;;;;142.80;43.63;;;;;;;9.36;100.00;102187.59;5012777;28;20042;-77
2022/05/06 04:24:00;;;;;;;102.50;43.08;;;;;;;9.41;100.00;102172.78;4999912;28;20088;-80
2022/05/06 04:26:28;;;;;;;161.93;44.67;;;;;;;9.51;100.00;102183.16;4996933;28;20385;-78
2022/05/06 04:29:04;;;;;;;124.85;44.15;;;;;;;9.46;100.00;102174.31;4980350;28;20045;-79
2022/05/06 04:31:32;;;;;;;134.13;40.90;;;;;;;9.43;100.00;102187.25;4981394;28;20056;-78
2022/05/06 04:33:57;;;;;;;118.78;44.58;;;;;;;9.37;100.00;102186.59;4996211;28;20435;-78
2022/05/06 04:36:24;;;;;;;141.02;43.58;;;;;;;9.29;100.00;102179.78;5014184;28;20449;-78
2022/05/06 04:38:52;;;;;;;146.35;42.45;;;;;;;9.33;100.00;102186.84;4957777;28;20043;-78
2022/05/06 04:41:19;;;;;;;140.02;42.60;;;;;;;9.41;100.00;102189.19;4994636;28;20034;-78
2022/05/06 04:43:45;;;;;;;129.35;41.65;;;;;;;9.62;100.00;102193.50;4982433;28;20089;-77
2022/05/06 04:46:10;;;;;;;125.32;42.35;;;;;;;9.34;100.00;102189.50;4998458;28;20487;-77
2022/05/06 04:48:35;;;;;;;126.45;43.38;;;;;;;9.45;100.00;102196.28;4949907;28;20042;-78
2022/05/06 04:51:03;;;;;;;102.85;42.13;;;;;;;9.56;100.00;102196.59;4947494;28;20031;-78
2022/05/06 04:53:36;;;;;;;98.40;42.88;;;;;;;9.67;100.00;102202.34;4998108;28;20034;-78
2022/05/06 04:56:04;;;;;;;108.68;41.17;;;;;;;9.56;100.00;102200.19;4998199;28;20058;-79
2022/05/06 04:58:31;;;;;;;101.93;41.13;;;;;;;9.59;100.00;102210.06;4974902;28;20038;-79
2022/05/06 05:01:01;;;;;;;91.40;40.75;;;;;;;9.61;100.00;102213.63;4974715;28;20082;-78
2022/05/06 05:03:28;;;;;;;107.68;39.38;;;;;;;9.59;100.00;102221.00;5010638;28;20049;-79
2022/05/06 05:06:06;;;;;;;104.40;40.85;;;;;;;9.62;100.00;102219.97;4990764;28;20042;-77
2022/05/06 05:08:35;;;;;;;103.65;39.17;;;;;;;9.74;100.00;102217.47;4984487;28;20217;-79
2022/05/06 05:11:03;;;;;;;116.28;41.17;;;;;;;9.69;100.00;102216.84;4975792;28;20402;-78
2022/05/06 05:13:34;;;;;;;111.32;39.15;;;;;;;9.77;100.00;102219.13;4999540;28;20030;-78
2022/05/06 05:16:01;;;;;;;95.38;40.17;;;;;;;9.71;100.00;102214.91;4995310;28;20046;-78
2022/05/06 05:18:26;;;;;;;111.45;36.78;;;;;;;9.69;100.00;102219.56;4997045;28;20578;-78
2022/05/06 05:20:58;;;;;;;122.88;38.25;;;;;;;9.66;100.00;102222.47;4996983;28;20537;-77
2022/05/06 05:23:29;;;;;;;86.55;35.58;;;;;;;9.75;100.00;102221.94;5012836;28;20109;-77
2022/05/06 05:25:57;;;;;;;108.10;34.50;;;;;;;9.64;100.00;102224.41;4978532;28;20070;-78
2022/05/06 05:28:26;;;;;;;98.95;33.70;;;;;;;9.65;100.00;102215.22;4981145;28;20123;-80
2022/05/06 05:30:53;;;;;;;72.63;34.28;;;;;;;9.74;100.00;102227.53;4977649;28;20041;-77
2022/05/06 05:33:21;;;;;;;100.78;34.63;;;;;;;9.82;100.00;102218.91;4964654;28;20038;-78
2022/05/06 05:35:47;;;;;;;68.70;33.08;;;;;;;9.84;100.00;102216.97;4974793;28;20041;-78
2022/05/06 05:38:13;;;;;;;117.05;32.72;;;;;;;9.80;100.00;102227.19;4965743;28;20046;-79
2022/05/06 05:40:39;;;;;;;83.22;32.08;;;;;;;9.74;100.00;102222.94;4998691;28;20110;-78
2022/05/06 05:43:05;;;;;;;97.40;34.08;;;;;;;9.73;100.00;102223.03;5013744;28;20069;-78
2022/05/06 05:48:20;;;;;;;92.40;34.80;;;;;;;9.94;100.00;102219.13;4953571;28;20106;-79
2022/05/06 05:50:47;;;;;;;74.78;34.60;;;;;;;10.08;100.00;102226.59;4981796;28;20614;-79
2022/05/06 05:53:15;;;;;;;70.40;33.63;;;;;;;10.11;100.00;102229.13;4966694;28;20486;-76
2022/05/06 05:55:42;;;;;;;63.42;30.40;;;;;;;10.02;100.00;102226.00;4992594;28;20061;-78
2022/05/06 05:58:07;;;;;;;129.73;29.70;;;;;;;10.01;100.00;102227.88;4995027;28;20081;-78
2022/05/06 06:00:33;;;;;;;133.85;31.67;;;;;;;9.93;100.00;102231.03;4953498;28;20030;-77
2022/05/06 06:03:00;;;;;;;96.05;31.52;;;;;;;10.05;100.00;102232.22;4987094;28;20113;-78
2022/05/06 06:05:25;;;;;;;69.85;32.33;;;;;;;10.00;100.00;102219.75;4991638;28;20046;-77
2022/05/06 06:07:51;;;;;;;62.38;32.25;;;;;;;10.25;100.00;102222.03;4974531;28;20409;-77
2022/05/06 06:10:17;;;;;;;61.92;27.92;;;;;;;10.21;100.00;102225.91;4995181;28;20518;-78
2022/05/06 06:12:42;;;;;;;59.60;30.05;;;;;;;10.27;100.00;102240.13;4978994;28;20038;-79
2022/05/06 06:15:18;;;;;;;66.30;30.83;;;;;;;10.43;100.00;102240.19;4988335;28;20050;-78
2022/05/06 06:17:44;;;;;;;66.50;31.25;;;;;;;10.41;100.00;102231.19;4987182;28;20042;-79
2022/05/06 06:20:15;;;;;;;93.45;31.85;;;;;;;10.40;100.00;102234.88;4993571;28;20042;-79
2022/05/06 06:22:47;;;;;;;85.00;31.98;;;;;;;10.47;100.00;102243.63;4982219;28;20033;-78
2022/05/06 06:25:13;;;;;;;66.00;32.83;;;;;;;10.58;100.00;102240.31;4969712;28;20042;-78
2022/05/06 06:27:49;;;;;;;100.82;32.40;;;;;;;10.52;100.00;102238.78;4988660;28;20126;-78
2022/05/06 06:30:23;;;;;;;63.15;31.45;;;;;;;10.65;100.00;102242.56;4983374;28;20077;-78
2022/05/06 06:32:53;;;;;;;77.93;30.33;;;;;;;10.66;100.00;102251.72;4984990;28;20134;-78
2022/05/06 06:35:19;;;;;;;71.78;29.80;;;;;;;10.42;100.00;102249.38;4983226;28;20470;-78
2022/05/06 06:37:48;;;;;;;67.22;31.25;;;;;;;10.50;100.00;102251.69;4997509;28;20049;-80
2022/05/06 06:40:14;;;;;;;64.05;30.70;;;;;;;10.61;100.00;102253.81;4982972;28;20038;-79
2022/05/06 06:42:41;;;;;;;68.13;30.98;;;;;;;10.76;100.00;102265.75;4997640;28;20030;-78
2022/05/06 06:45:07;;;;;;;89.53;29.90;;;;;;;10.88;100.00;102261.44;4971662;28;20475;-79
2022/05/06 06:47:33;;;;;;;87.50;32.42;;;;;;;10.78;100.00;102261.06;4993289;28;20043;-79
2022/05/06 06:49:59;;;;;;;68.45;32.75;;;;;;;10.83;100.00;102253.47;4987675;28;20129;-81
2022/05/06 06:52:27;;;;;;;67.97;32.33;;;;;;;10.94;100.00;102255.59;4976986;28;20035;-79
2022/05/06 06:54:53;;;;;;;69.57;32.40;;;;;;;10.94;100.00;102255.59;4977214;28;20034;-80
2022/05/06 06:57:18;;;;;;;67.97;31.00;;;;;;;10.82;100.00;102246.19;4957888;28;20034;-80
2022/05/06 06:59:46;;;;;;;67.75;33.28;;;;;;;10.95;100.00;102257.34;4995652;28;20031;-80
2022/05/06 07:02:12;;;;;;;65.07;32.42;;;;;;;10.99;100.00;102268.03;4976898;28;20047;-79
2022/05/06 07:04:38;;;;;;;64.80;31.83;;;;;;;10.97;100.00;102261.78;4976468;28;20070;-80
2022/05/06 07:12:34;;;;;;;71.07;35.00;;;;;;;11.32;100.00;102271.63;4977400;28;20047;-79
2022/05/06 07:15:01;;;;;;;68.75;34.30;;;;;;;11.26;100.00;102270.13;4960167;28;20066;-79
2022/05/06 07:17:30;;;;;;;75.07;36.55;;;;;;;11.22;100.00;102268.56;4992780;28;20047;-80
2022/05/06 07:20:00;;;;;;;72.70;35.55;;;;;;;11.53;100.00;102270.34;4988713;28;20042;-79
2022/05/06 07:22:30;;;;;;;79.07;37.88;;;;;;;11.57;100.00;102271.03;4976585;28;20034;-79
2022/05/06 07:24:56;;;;;;;66.47;35.50;;;;;;;11.57;100.00;102269.16;4976765;28;20398;-79
2022/05/06 07:27:35;;;;;;;73.63;36.92;;;;;;;11.62;100.00;102271.63;4955185;28;20077;-78
2022/05/06 07:30:03;;;;;;;74.20;36.33;;;;;;;11.71;100.00;102279.31;4991259;28;20027;-79
2022/05/06 07:32:32;;;;;;;73.88;34.92;;;;;;;11.80;100.00;102277.84;4992033;28;20031;-80
2022/05/06 07:34:58;;;;;;;70.63;35.33;;;;;;;11.66;100.00;102265.00;4998197;28;20168;-80
2022/05/06 07:37:24;;;;;;;67.22;33.13;;;;;;;12.00;100.00;102275.78;4979970;28;20054;-79
2022/05/06 07:39:51;;;;;;;71.50;33.75;;;;;;;11.98;100.00;102275.88;4964148;28;20062;-78
2022/05/06 07:42:20;;;;;;;68.40;34.72;;;;;;;12.27;100.00;102287.78;4978049;28;20034;-78
2022/05/06 07:44:50;;;;;;;75.57;34.88;;;;;;;12.28;100.00;102289.56;4996414;28;20070;-80
2022/05/06 07:47:15;;;;;;;69.63;35.03;;;;;;;12.42;100.00;102290.53;4964897;28;20041;-78
2022/05/06 07:49:41;;;;;;;64.15;32.97;;;;;;;12.35;100.00;102297.38;4964259;28;20026;-81
2022/05/06 07:52:09;;;;;;;61.65;33.80;;;;;;;12.41;100.00;102299.75;5000123;28;20081;-78
2022/05/06 07:54:34;;;;;;;67.25;32.80;;;;;;;12.53;100.00;102298.06;4995219;28;20465;-78
2022/05/06 07:57:01;;;;;;;70.60;34.83;;;;;;;12.40;100.00;102292.50;4969963;28;20071;-78
2022/05/06 07:59:27;;;;;;;61.95;33.42;;;;;;;12.69;100.00;102298.84;4961780;28;20035;-78
2022/05/06 08:04:40;;;;;;;68.95;32.53;;;;;;;12.78;100.00;102302.88;4998272;28;20437;-78
2022/05/06 08:07:08;;;;;;;58.72;32.20;;;;;;;12.85;100.00;102304.22;4964897;28;20045;-78
2022/05/06 08:09:35;;;;;;;66.22;34.28;;;;;;;12.79;100.00;102316.53;4983563;28;20399;-78
2022/05/06 08:12:00;;;;;;;66.47;34.20;;;;;;;12.92;100.00;102313.84;4996520;28;20053;-79
2022/05/06 08:14:29;;;;;;;69.68;35.53;;;;;;;12.71;100.00;102328.97;4964236;28;20070;-78
2022/05/06 08:16:55;;;;;;;68.95;34.67;;;;;;;12.64;100.00;102320.25;5015710;28;20125;-77
2022/05/06 08:19:23;;;;;;;61.42;32.25;;;;;;;12.68;100.00;102319.94;4998583;28;20045;-79
2022/05/06 08:21:49;;;;;;;64.03;34.45;;;;;;;12.74;100.00;102317.78;4998365;28;20034;-77
2022/05/06 08:24:15;;;;;;;65.97;35.17;;;;;;;12.71;100.00;102323.47;4981962;28;20090;-77
2022/05/06 08:26:51;;;;;;;64.75;33.67;;;;;;;12.74;100.00;102324.19;4998875;28;20030;-78
2022/05/06 08:29:25;;;;;;;66.45;34.22;;;;;;;12.92;100.00;102323.94;4998906;28;20030;-78
2022/05/06 08:31:53;;;;;;;65.78;34.15;;;;;;;13.00;100.00;102322.47;4981304;28;20479;-78
2022/05/06 08:34:19;;;;;;;66.57;32.20;;;;;;;13.03;100.00;102322.25;4979598;28;20540;-78
2022/05/06 08:36:48;;;;;;;63.00;33.00;;;;;;;13.17;100.00;102321.34;4996230;28;20061;-78
2022/05/06 08:39:16;;;;;;;63.15;32.13;;;;;;;13.39;100.00;102320.81;4996896;28;20112;-78
2022/05/06 08:41:54;;;;;;;57.83;31.15;;;;;;;13.32;100.00;102321.31;4981642;28;20109;-77
2022/05/06 08:52:45;;;;;;;56.80;30.30;;;;;;;13.94;100.00;102324.41;4997108;28;20128;-79
2022/05/06 08:55:20;;;;;;;51.58;30.05;;;;;;;14.46;100.00;102314.31;4996700;28;20030;-78
2022/05/06 08:57:55;;;;;;;56.05;29.58;;;;;;;14.45;100.00;102317.19;4951552;28;20054;-78
2022/05/06 09:00:26;;;;;;;56.17;32.78;;;;;;;14.34;100.00;102315.19;4993275;28;20125;-77
2022/05/06 09:02:54;;;;;;;52.78;30.38;;;;;;;14.29;100.00;102322.91;4992551;28;20042;-78
2022/05/06 09:05:23;;;;;;;52.10;29.85;;;;;;;15.01;100.00;102320.44;4992373;28;20041;-78
2022/05/06 09:08:02;;;;;;;54.25;29.10;;;;;;;15.30;100.00;102311.84;4982434;28;20026;-78
2022/05/06 09:10:29;;;;;;;49.20;29.20;;;;;;;15.67;100.00;102302.63;4997538;28;20479;-78
2022/05/06 09:12:59;;;;;;;52.83;29.58;;;;;;;16.02;100.00;102308.19;4997682;28;20043;-79
2022/05/06 09:18:24;;;;;;;48.72;28.58;;;;;;;16.06;100.00;102297.75;4986430;28;20063;-78
2022/05/06 09:21:08;;;;;;;46.10;29.70;;;;;;;16.43;100.00;102297.53;4999075;28;20026;-78
2022/05/06 09:23:33;;;;;;;46.38;28.58;;;;;;;16.80;100.00;102287.13;5012522;28;20035;-79
2022/05/06 09:26:02;;;;;;;51.10;30.27;;;;;;;16.53;100.00;102293.06;5016517;28;20497;-79
2022/05/06 09:28:32;;;;;;;47.95;28.50;;;;;;;17.14;100.00;102287.09;4998147;28;20062;-79
2022/05/06 09:31:04;;;;;;;52.33;29.80;;;;;;;17.10;100.00;102280.06;4998993;28;20486;-77
2022/05/06 09:33:32;;;;;;;51.72;31.70;;;;;;;17.18;100.00;102283.06;5011644;28;20031;-77
2022/05/06 09:36:20;;;;;;;54.78;30.40;;;;;;;17.31;100.00;102271.81;4977022;28;20129;-79
2022/05/06 09:39:10;;;;;;;48.60;28.00;;;;;;;17.62;100.00;102267.28;5014664;28;20030;-78
2022/05/06 09:41:41;;;;;;;53.90;30.95;;;;;;;17.34;100.00;102268.81;4982468;28;20122;-78
2022/05/06 09:44:22;;;;;;;50.63;28.92;;;;;;;18.12;100.00;102272.22;5006521;28;20053;-78
2022/05/06 09:47:15;;;;;;;48.70;29.30;;;;;;;18.67;100.00;102263.59;5009043;28;20042;-78
2022/05/06 09:49:43;;;;;;;46.38;29.20;;;;;;;17.69;100.00;102267.63;4997359;28;20038;-78
2022/05/06 09:52:13;;;;;;;57.65;30.02;;;;;;;17.90;100.00;102269.59;4998816;28;20041;-79
2022/05/06 09:54:41;;;;;;;53.40;31.45;;;;;;;17.82;100.00;102268.34;4996884;28;20121;-78
2022/05/06 09:57:08;;;;;;;49.38;29.27;;;;;;;18.62;100.00;102265.91;4980830;28;20030;-78
2022/05/06 09:59:43;;;;;;;52.30;31.10;;;;;;;18.59;100.00;102263.41;5014423;28;20030;-78
2022/05/06 10:02:15;;;;;;;52.78;31.73;;;;;;;18.34;100.00;102268.41;4995807;28;20056;-78
2022/05/06 10:04:48;;;;;;;56.60;31.00;;;;;;;18.37;100.00;102257.03;4995630;28;20034;-78
2022/05/06 10:07:17;;;;;;;48.08;30.35;;;;;;;18.90;100.00;102264.28;4998536;28;20437;-78
2022/05/06 10:09:52;;;;;;;59.28;31.50;;;;;;;18.71;100.00;102258.66;4983487;28;20038;-79
2022/05/06 10:12:20;;;;;;;50.67;32.47;;;;;;;18.76;100.00;102261.00;4997188;28;20030;-76
2022/05/06 10:14:56;;;;;;;57.47;31.95;;;;;;;18.72;100.00;102261.28;4993902;28;20573;-75
2022/05/06 10:17:47;;;;;;;56.65;32.72;;;;;;;18.97;100.00;102264.63;4959929;28;20108;-77
2022/05/06 10:20:35;;;;;;;56.22;30.50;;;;;;;19.50;100.00;102260.59;4978855;28;20031;-79
2022/05/06 10:23:09;;;;;;;56.42;32.13;;;;;;;19.71;100.00;102251.22;4976111;28;20434;-78
2022/05/06 10:25:43;;;;;;;57.33;33.78;;;;;;;19.78;97.68;102255.22;4979907;28;20061;-77
2022/05/06 10:34:15;;;;;;;59.78;33.72;;;;;;;20.63;94.20;102247.84;4995029;28;20034;-78
2022/05/06 10:36:49;;;;;;;58.13;34.00;;;;;;;20.52;92.31;102246.09;4993681;28;20149;-76
2022/05/06 10:39:37;;;;;;;57.42;33.95;;;;;;;20.29;93.36;102245.59;4994449;28;20030;-76
2022/05/06 10:42:08;;;;;;;58.05;33.35;;;;;;;20.52;87.99;102248.00;5007766;28;20042;-76
2022/05/06 10:44:48;;;;;;;61.88;34.30;;;;;;;19.28;96.85;102237.63;4982377;28;20026;-77
2022/05/06 10:47:24;;;;;;;55.30;32.75;;;;;;;19.94;93.56;102235.13;4998911;28;20038;-77
2022/05/06 10:49:52;;;;;;;58.47;32.63;;;;;;;19.97;92.88;102232.06;4994319;28;20457;-77
2022/05/06 10:52:18;;;;;;;57.97;33.55;;;;;;;20.69;87.83;102226.84;4993592;28;20026;-77
2022/05/06 10:54:58;;;;;;;56.10;31.52;;;;;;;20.47;90.28;102223.41;4992960;28;20034;-76
2022/05/06 10:57:26;;;;;;;55.90;33.40;;;;;;;20.37;91.16;102229.00;4989044;28;20054;-77
2022/05/06 11:00:02;;;;;;;59.22;33.88;;;;;;;20.32;89.73;102233.28;4989547;28;20041;-77
2022/05/06 11:02:32;;;;;;;61.83;35.85;;;;;;;20.49;89.89;102232.47;4986187;28;20025;-77
2022/05/06 11:05:06;;;;;;;64.35;32.10;;;;;;;20.45;89.68;102230.19;4961415;28;20045;-76
2022/05/06 11:07:39;;;;;;;49.88;29.05;;;;;;;20.39;89.74;102231.66;5006802;28;20022;-77
2022/05/06 11:10:16;;;;;;;52.40;29.98;;;;;;;20.15;88.02;102221.94;4994148;28;20050;-77
2022/05/06 11:12:50;;;;;;;51.50;28.33;;;;;;;19.61;89.66;102216.00;4993562;28;20058;-75
2022/05/06 11:15:28;;;;;;;47.47;27.95;;;;;;;19.45;92.31;102222.13;5005368;28;20053;-78
2022/05/06 11:18:04;;;;;;;50.13;27.50;;;;;;;19.41;88.42;102219.78;4994262;28;20116;-77
2022/05/06 11:20:33;;;;;;;47.83;27.48;;;;;;;19.52;89.60;102213.22;5009229;28;20508;-77
2022/05/06 11:23:07;;;;;;;41.13;25.15;;;;;;;19.99;85.85;102208.66;4992849;28;20027;-78
2022/05/06 11:25:45;;;;;;;37.20;20.83;;;;;;;20.36;82.30;102216.13;4991279;28;20046;-75
2022/05/06 11:28:24;;;;;;;45.35;22.90;;;;;;;20.45;82.99;102210.69;4993154;28;20581;-77
2022/05/06 11:30:52;;;;;;;38.35;21.95;;;;;;;20.97;77.98;102213.78;5009206;28;20030;-77
2022/05/06 11:33:31;;;;;;;32.10;20.02;;;;;;;20.47;79.95;102208.63;5008676;28;20030;-77
2022/05/06 11:36:12;;;;;;;39.88;19.02;;;;;;;20.52;78.94;102192.34;4991006;28;20054;-77
2022/05/06 11:38:40;;;;;;;;;;;;;;;20.88;77.89;102207.25;5008991;28;20096;-76
2022/05/06 11:41:12;;;;;;;28.73;16.75;;;;;;;20.97;76.85;102191.50;4996338;28;19957;-77
2022/05/06 11:43:43;;;;;;;26.77;14.38;;;;;;;21.05;74.92;102185.16;4996887;28;20046;-77
2022/05/06 11:49:24;;;;;;;28.75;17.08;;;;;;;20.54;73.26;102188.34;4978786;28;20038;-77
2022/05/06 11:51:53;;;;;;;25.63;15.02;;;;;;;20.73;73.83;102187.41;4983667;28;20110;-77
2022/05/06 11:54:23;;;;;;;26.30;15.40;;;;;;;21.02;73.84;102174.31;4997144;28;20096;-76
2022/05/06 11:56:50;;;;;;;24.50;14.73;;;;;;;20.77;75.07;102171.28;4996224;28;20034;-77